Time;durP1;ratioP1;P1;durP2;ratioP2;P2;SDS_P1;SDS_P2;PMS_P1;PMS_P2;Temp;Humidity;BMP_temperature;BMP_pressure;BME280_temperature;BME280_humidity;BME280_pressure;Samples;Min_cycle;Max_cycle;Signal;HPM_P1;HPM_P2
2022/10/26 00:00:29;;;;;;;16.00;8.35;;;11.50;99.90;;;;;;4884493;29;20066;-59
2022/10/26 00:02:55;;;;;;;15.65;7.70;;;11.40;99.90;;;;;;4887424;29;20056;-59
2022/10/26 00:05:22;;;;;;;18.75;8.27;;;11.40;99.90;;;;;;4886894;29;20813;-59
2022/10/26 00:07:49;;;;;;;14.93;8.18;;;11.40;99.90;;;;;;4912952;28;20044;-59
2022/10/26 00:10:15;;;;;;;13.98;7.93;;;11.40;99.90;;;;;;4886548;29;20049;-58
2022/10/26 00:12:41;;;;;;;13.43;7.72;;;11.40;99.90;;;;;;4884712;29;20517;-59
2022/10/26 00:15:07;;;;;;;11.95;7.70;;;11.40;99.90;;;;;;4887063;29;20044;-59
2022/10/26 00:17:34;;;;;;;13.73;7.43;;;11.40;99.90;;;;;;4884059;29;20071;-59
2022/10/26 00:20:01;;;;;;;14.23;7.55;;;11.40;99.90;;;;;;4917171;28;20087;-59
2022/10/26 00:22:27;;;;;;;16.52;7.68;;;11.40;99.90;;;;;;4886160;29;20047;-59
2022/10/26 00:24:53;;;;;;;12.75;8.23;;;11.40;99.90;;;;;;4882798;29;20426;-58
2022/10/26 00:27:19;;;;;;;11.35;7.10;;;11.40;99.90;;;;;;4917275;28;20499;-59
2022/10/26 00:29:45;;;;;;;13.20;7.43;;;11.40;99.90;;;;;;4886438;29;20075;-59
2022/10/26 00:32:10;;;;;;;16.17;8.32;;;11.40;99.90;;;;;;4898836;29;20138;-58
2022/10/26 00:34:36;;;;;;;13.60;7.38;;;11.40;99.90;;;;;;4885498;29;20451;-59
2022/10/26 00:37:02;;;;;;;12.07;7.25;;;11.40;99.90;;;;;;4888709;29;20051;-59
2022/10/26 00:39:28;;;;;;;13.18;8.27;;;11.40;99.90;;;;;;4887997;29;24754;-59
2022/10/26 00:41:54;;;;;;;18.38;8.15;;;11.40;99.90;;;;;;4900241;29;20056;-58
2022/10/26 00:44:47;;;;;;;14.27;7.90;;;11.50;99.90;;;;;;4887656;29;20109;-58
2022/10/26 00:47:42;;;;;;;18.08;8.27;;;11.40;99.90;;;;;;4886174;29;20091;-59
2022/10/26 00:50:27;;;;;;;15.88;8.55;;;11.40;99.90;;;;;;4885890;29;20056;-57
2022/10/26 00:52:54;;;;;;;16.70;8.00;;;11.30;99.90;;;;;;4888161;29;20059;-58
2022/10/26 00:55:25;;;;;;;13.10;8.20;;;11.30;99.90;;;;;;4901403;29;20044;-59
2022/10/26 00:57:52;;;;;;;15.30;8.38;;;11.30;99.90;;;;;;4904597;29;20051;-58
2022/10/26 01:00:19;;;;;;;14.95;8.48;;;11.30;99.90;;;;;;4885163;29;20048;-59
2022/10/26 01:02:46;;;;;;;11.35;7.75;;;11.30;99.90;;;;;;4889508;29;25928;-58
2022/10/26 01:05:14;;;;;;;21.65;8.45;;;11.30;99.90;;;;;;4892253;29;20073;-58
2022/10/26 01:07:42;;;;;;;14.05;7.95;;;11.30;99.90;;;;;;4891205;29;20139;-59
2022/10/26 01:10:08;;;;;;;14.35;8.80;;;11.30;99.90;;;;;;4888811;29;20058;-59
2022/10/26 01:12:35;;;;;;;12.95;8.07;;;11.30;99.90;;;;;;4890156;29;20110;-59
2022/10/26 01:15:01;;;;;;;17.40;8.90;;;11.30;99.90;;;;;;4887210;29;20075;-58
2022/10/26 01:17:54;;;;;;;18.25;8.77;;;11.30;99.90;;;;;;4919295;28;20433;-58
2022/10/26 01:20:59;;;;;;;13.90;8.50;;;11.30;99.90;;;;;;4887997;29;20044;-59
2022/10/26 01:23:36;;;;;;;13.02;8.00;;;11.20;99.90;;;;;;4887089;29;20079;-58
2022/10/26 01:26:22;;;;;;;12.90;7.72;;;11.20;99.90;;;;;;4885145;29;20491;-58
2022/10/26 01:29:07;;;;;;;18.85;8.55;;;11.10;99.90;;;;;;4865124;29;20087;-59
2022/10/26 01:31:47;;;;;;;17.23;8.82;;;11.10;99.90;;;;;;4885830;29;20052;-58
2022/10/26 01:34:23;;;;;;;14.32;8.55;;;11.10;99.90;;;;;;4885578;29;20505;-59
2022/10/26 01:36:59;;;;;;;15.07;8.00;;;11.10;99.90;;;;;;4885865;29;20048;-58
2022/10/26 01:39:43;;;;;;;11.57;8.30;;;11.10;99.90;;;;;;4916685;28;20067;-59
2022/10/26 01:42:11;;;;;;;18.55;8.27;;;11.00;99.90;;;;;;4886488;29;20053;-58
2022/10/26 01:44:52;;;;;;;12.20;7.93;;;11.00;99.90;;;;;;4916321;28;20044;-59
2022/10/26 01:47:21;;;;;;;12.48;8.63;;;11.00;99.90;;;;;;4884549;29;20050;-59
2022/10/26 01:49:55;;;;;;;17.17;8.90;;;11.00;99.90;;;;;;4885720;29;20076;-59
2022/10/26 01:52:22;;;;;;;15.57;9.30;;;11.00;99.90;;;;;;4917342;28;20064;-59
2022/10/26 01:54:47;;;;;;;25.15;9.18;;;10.90;99.90;;;;;;4915656;28;20059;-59
2022/10/26 01:57:17;;;;;;;17.20;9.43;;;10.90;99.90;;;;;;4891610;29;20503;-59
2022/10/26 02:00:07;;;;;;;21.50;9.88;;;10.90;99.90;;;;;;4885939;29;20120;-59
2022/10/26 02:02:56;;;;;;;15.52;10.15;;;10.90;99.90;;;;;;4885082;29;20065;-59
2022/10/26 02:05:25;;;;;;;14.43;9.90;;;10.90;99.90;;;;;;4886003;29;20052;-58
2022/10/26 02:08:16;;;;;;;17.17;10.20;;;10.80;99.90;;;;;;4888046;29;20107;-59
2022/10/26 02:11:03;;;;;;;17.80;9.88;;;10.80;99.90;;;;;;4889420;29;20044;-59
2022/10/26 02:13:39;;;;;;;13.02;8.30;;;10.80;99.90;;;;;;4889466;29;20045;-58
2022/10/26 02:16:52;;;;;;;14.05;8.65;;;10.80;99.90;;;;;;4891489;29;20518;-59
2022/10/26 02:19:34;;;;;;;15.82;8.63;;;10.80;99.90;;;;;;4886080;29;20503;-59
2022/10/26 02:22:14;;;;;;;16.08;9.07;;;10.80;99.90;;;;;;4885202;29;20551;-58
2022/10/26 02:24:42;;;;;;;18.70;8.18;;;10.80;99.90;;;;;;4888010;29;20058;-58
2022/10/26 02:27:12;;;;;;;12.32;8.02;;;10.80;99.90;;;;;;4886548;29;20076;-59
2022/10/26 02:29:40;;;;;;;13.80;8.43;;;10.80;99.90;;;;;;4889622;29;20063;-58
2022/10/26 02:32:08;;;;;;;13.77;8.40;;;10.80;99.90;;;;;;4890935;29;20040;-59
2022/10/26 02:34:36;;;;;;;15.52;8.50;;;10.70;99.90;;;;;;4922354;28;20044;-58
2022/10/26 02:37:03;;;;;;;13.77;8.77;;;10.80;99.90;;;;;;4891159;29;20062;-58
2022/10/26 02:39:33;;;;;;;14.30;8.25;;;10.70;99.90;;;;;;4892261;29;20143;-58
2022/10/26 02:42:04;;;;;;;17.52;8.73;;;10.70;99.90;;;;;;4922001;28;20064;-59
2022/10/26 02:44:43;;;;;;;14.03;8.97;;;10.70;99.90;;;;;;4891748;29;20199;-60
2022/10/26 02:47:10;;;;;;;15.98;9.35;;;10.70;99.90;;;;;;4888742;29;20067;-58
2022/10/26 02:49:36;;;;;;;15.60;8.90;;;10.70;99.90;;;;;;4892210;29;20044;-58
2022/10/26 02:52:12;;;;;;;18.55;9.60;;;10.70;99.90;;;;;;4890551;29;20052;-59
2022/10/26 02:54:55;;;;;;;14.75;9.55;;;10.60;99.90;;;;;;4890457;29;20056;-59
2022/10/26 02:57:33;;;;;;;12.15;9.02;;;10.60;99.90;;;;;;4922357;28;20064;-59
2022/10/26 02:59:59;;;;;;;15.18;9.25;;;10.60;99.90;;;;;;4889644;29;20052;-57
2022/10/26 03:02:26;;;;;;;15.85;9.10;;;10.60;99.90;;;;;;4887639;29;20067;-59
2022/10/26 03:04:54;;;;;;;13.45;8.93;;;10.60;99.90;;;;;;4891791;29;20166;-58
2022/10/26 03:07:23;;;;;;;14.57;9.00;;;10.60;99.90;;;;;;4891763;29;20061;-59
2022/10/26 03:09:49;;;;;;;16.70;9.90;;;10.50;99.90;;;;;;4904318;29;20517;-59
2022/10/26 03:12:16;;;;;;;17.65;9.43;;;10.50;99.90;;;;;;4894061;29;20048;-59
2022/10/26 03:14:41;;;;;;;19.10;10.60;;;10.50;99.90;;;;;;4891499;29;21167;-59
2022/10/26 03:17:07;;;;;;;20.65;10.30;;;10.50;99.90;;;;;;4890134;29;20155;-59
2022/10/26 03:19:33;;;;;;;20.05;9.57;;;10.50;99.90;;;;;;4888099;29;20131;-59
2022/10/26 03:21:59;;;;;;;13.82;9.25;;;10.50;99.90;;;;;;4888763;29;20059;-58
2022/10/26 03:24:25;;;;;;;16.30;9.65;;;10.50;99.90;;;;;;4889896;29;20154;-58
2022/10/26 03:26:50;;;;;;;13.60;9.85;;;10.50;99.90;;;;;;4888962;29;20056;-59
2022/10/26 03:29:16;;;;;;;14.80;10.07;;;10.50;99.90;;;;;;4886516;29;20052;-59
2022/10/26 03:31:42;;;;;;;18.88;10.38;;;10.50;99.90;;;;;;4888560;29;20044;-59
2022/10/26 03:34:08;;;;;;;19.08;10.25;;;10.40;99.90;;;;;;4888945;29;20055;-59
2022/10/26 03:36:34;;;;;;;18.10;10.27;;;10.40;99.90;;;;;;4889506;29;20795;-59
2022/10/26 03:38:59;;;;;;;22.20;11.15;;;10.40;99.90;;;;;;4889780;29;20044;-58
2022/10/26 03:41:25;;;;;;;15.57;9.75;;;10.40;99.90;;;;;;4887885;29;20052;-59
2022/10/26 03:43:51;;;;;;;19.35;10.43;;;10.40;99.90;;;;;;4892006;29;20051;-59
2022/10/26 03:46:17;;;;;;;18.27;10.65;;;10.40;99.90;;;;;;4889803;29;20712;-58
2022/10/26 03:48:42;;;;;;;15.18;10.48;;;10.40;99.90;;;;;;4891485;29;20099;-59
2022/10/26 03:51:08;;;;;;;15.70;10.95;;;10.40;99.90;;;;;;4889791;29;20119;-59
2022/10/26 03:53:34;;;;;;;16.13;11.25;;;10.40;99.90;;;;;;4915399;28;20058;-58
2022/10/26 03:56:00;;;;;;;15.95;10.85;;;10.30;99.90;;;;;;4886829;29;20055;-58
2022/10/26 03:58:25;;;;;;;15.55;10.93;;;10.40;99.90;;;;;;4889691;29;20064;-59
2022/10/26 04:00:51;;;;;;;20.50;11.02;;;10.40;99.90;;;;;;4917888;28;20099;-59
2022/10/26 04:03:17;;;;;;;18.73;11.90;;;10.40;99.90;;;;;;4887357;29;20055;-58
2022/10/26 04:05:43;;;;;;;18.13;11.55;;;10.40;99.90;;;;;;4884191;29;20064;-59
2022/10/26 04:08:09;;;;;;;18.80;12.52;;;10.40;99.90;;;;;;4885187;29;20052;-58
2022/10/26 04:10:34;;;;;;;21.02;12.88;;;10.30;99.90;;;;;;4889817;29;20487;-59
2022/10/26 04:13:00;;;;;;;19.08;13.15;;;10.30;99.90;;;;;;4886982;29;20071;-58
2022/10/26 04:15:27;;;;;;;19.88;13.30;;;10.30;99.90;;;;;;4921112;28;20056;-58
2022/10/26 04:18:00;;;;;;;22.15;13.52;;;10.30;99.90;;;;;;4884132;29;20056;-59
2022/10/26 04:20:28;;;;;;;21.88;13.80;;;10.30;99.90;;;;;;4891733;29;20060;-58
2022/10/26 04:23:02;;;;;;;20.55;13.05;;;10.30;99.90;;;;;;4894882;29;20057;-58
2022/10/26 04:25:29;;;;;;;22.00;13.60;;;10.30;99.90;;;;;;4909441;29;20060;-59
2022/10/26 04:27:55;;;;;;;22.35;13.10;;;10.30;99.90;;;;;;4909960;29;20044;-58
2022/10/26 04:30:21;;;;;;;19.20;13.38;;;10.20;99.90;;;;;;4896407;29;20048;-57
2022/10/26 04:32:47;;;;;;;18.95;13.18;;;10.20;99.90;;;;;;4896831;29;20086;-57
2022/10/26 04:35:13;;;;;;;17.88;13.45;;;10.30;99.90;;;;;;4890022;29;20131;-58
2022/10/26 04:37:38;;;;;;;22.98;14.00;;;10.20;99.90;;;;;;4885898;29;20471;-58
2022/10/26 04:40:04;;;;;;;19.42;13.48;;;10.20;99.90;;;;;;4902492;29;20072;-58
2022/10/26 04:42:32;;;;;;;20.00;13.30;;;10.20;99.90;;;;;;4888428;29;20123;-59
2022/10/26 04:44:59;;;;;;;23.25;14.35;;;10.30;99.90;;;;;;4886181;29;20086;-58
2022/10/26 04:47:25;;;;;;;22.83;13.93;;;10.30;99.90;;;;;;4886709;29;20120;-58
2022/10/26 04:49:51;;;;;;;21.73;14.90;;;10.30;99.90;;;;;;4889787;29;20431;-59
2022/10/26 04:52:16;;;;;;;25.85;14.73;;;10.30;99.90;;;;;;4890556;29;20056;-57
2022/10/26 04:54:42;;;;;;;27.60;15.15;;;10.30;99.90;;;;;;4918267;28;20071;-58
2022/10/26 04:57:08;;;;;;;23.70;13.77;;;10.30;99.90;;;;;;4888972;29;20048;-58
2022/10/26 04:59:33;;;;;;;24.70;15.55;;;10.30;99.90;;;;;;4890220;29;20047;-59
2022/10/26 05:01:59;;;;;;;24.13;15.68;;;10.30;99.90;;;;;;4891632;29;20118;-58
2022/10/26 05:04:25;;;;;;;26.80;15.23;;;10.40;99.90;;;;;;4898979;29;20052;-59
2022/10/26 05:06:52;;;;;;;23.25;15.00;;;10.40;99.90;;;;;;4891766;29;20248;-59
2022/10/26 05:09:18;;;;;;;24.05;15.00;;;10.40;99.90;;;;;;4918322;28;20475;-58
2022/10/26 05:11:44;;;;;;;23.00;15.20;;;10.40;99.90;;;;;;4886667;29;20044;-59
2022/10/26 05:14:11;;;;;;;25.02;14.52;;;10.40;99.90;;;;;;4882919;29;20050;-59
2022/10/26 05:16:37;;;;;;;26.13;15.75;;;10.40;99.90;;;;;;4887376;29;20048;-59
2022/10/26 05:19:03;;;;;;;23.98;15.27;;;10.50;99.90;;;;;;4884366;29;20046;-58
2022/10/26 05:21:30;;;;;;;24.67;15.60;;;10.50;99.90;;;;;;4886085;29;20648;-59
2022/10/26 05:23:55;;;;;;;24.27;15.60;;;10.50;99.90;;;;;;4888822;29;20046;-59
2022/10/26 05:26:22;;;;;;;26.98;14.45;;;10.50;99.90;;;;;;4879254;29;20055;-59
2022/10/26 05:28:48;;;;;;;31.35;15.43;;;10.60;99.90;;;;;;4879805;29;20047;-58
2022/10/26 05:31:14;;;;;;;26.00;15.13;;;10.60;99.90;;;;;;4898192;29;21021;-59
2022/10/26 05:33:40;;;;;;;21.08;14.75;;;10.60;99.90;;;;;;4885146;29;20048;-59
2022/10/26 05:36:06;;;;;;;26.67;16.08;;;10.60;99.90;;;;;;4882752;29;20049;-59
2022/10/26 05:38:32;;;;;;;29.23;15.00;;;10.70;99.90;;;;;;4885965;29;20048;-59
2022/10/26 05:41:00;;;;;;;28.48;16.17;;;10.70;99.90;;;;;;4885499;29;20047;-58
2022/10/26 05:43:26;;;;;;;23.33;14.88;;;10.70;99.90;;;;;;4889545;29;20533;-58
2022/10/26 05:45:53;;;;;;;26.00;15.07;;;10.70;99.90;;;;;;4902246;29;20052;-58
2022/10/26 05:48:20;;;;;;;23.65;15.20;;;10.70;99.90;;;;;;4891572;29;20067;-58
2022/10/26 05:50:45;;;;;;;21.45;15.38;;;10.70;99.90;;;;;;4889570;29;20411;-59
2022/10/26 05:53:11;;;;;;;26.02;14.95;;;10.70;99.90;;;;;;4891172;29;20052;-59
2022/10/26 05:55:37;;;;;;;19.85;14.43;;;10.80;99.90;;;;;;4920359;28;20055;-58
2022/10/26 05:58:07;;;;;;;23.25;14.65;;;10.80;99.90;;;;;;4891374;29;20051;-59
2022/10/26 06:00:33;;;;;;;21.60;13.55;;;10.80;99.90;;;;;;4892105;29;20468;-58
2022/10/26 06:03:30;;;;;;;22.45;13.90;;;10.80;99.90;;;;;;4891308;29;20074;-59
2022/10/26 06:05:58;;;;;;;18.02;13.50;;;10.80;99.90;;;;;;4918620;28;20814;-58
2022/10/26 06:08:26;;;;;;;22.17;13.43;;;10.80;99.90;;;;;;4891319;29;20111;-59
2022/10/26 06:10:53;;;;;;;20.70;13.35;;;10.80;99.90;;;;;;4919176;28;20048;-59
2022/10/26 06:13:20;;;;;;;21.33;13.02;;;10.90;99.90;;;;;;4918527;28;21086;-58
2022/10/26 06:16:13;;;;;;;21.25;13.75;;;10.80;99.90;;;;;;4887105;29;20041;-59
2022/10/26 06:18:49;;;;;;;21.17;12.88;;;10.90;99.90;;;;;;4893263;29;20052;-58
2022/10/26 06:21:37;;;;;;;21.08;13.63;;;10.80;99.90;;;;;;4895142;29;20051;-59
2022/10/26 06:24:16;;;;;;;21.83;13.30;;;10.90;99.90;;;;;;4897020;29;20114;-59
2022/10/26 06:27:07;;;;;;;20.67;14.23;;;10.90;99.90;;;;;;4897409;29;20056;-59
2022/10/26 06:29:54;;;;;;;25.55;14.70;;;10.80;99.90;;;;;;4893811;29;20044;-59
2022/10/26 06:32:23;;;;;;;20.52;14.05;;;10.80;99.90;;;;;;4925119;28;20051;-57
2022/10/26 06:34:52;;;;;;;25.08;14.65;;;10.90;99.90;;;;;;4894429;29;20083;-59
2022/10/26 06:37:19;;;;;;;21.42;14.30;;;10.80;99.90;;;;;;4895354;29;20114;-59
2022/10/26 06:39:48;;;;;;;22.38;14.80;;;10.80;99.90;;;;;;4893529;29;20044;-58
2022/10/26 06:42:14;;;;;;;21.23;14.23;;;10.80;99.90;;;;;;4888872;29;20103;-60
2022/10/26 06:44:40;;;;;;;20.00;14.13;;;10.80;99.90;;;;;;4891950;29;20048;-59
2022/10/26 06:47:13;;;;;;;19.83;13.52;;;10.80;99.90;;;;;;4924108;28;20757;-58
2022/10/26 06:49:56;;;;;;;25.83;14.48;;;10.80;99.90;;;;;;4897342;29;20086;-59
2022/10/26 06:52:39;;;;;;;21.25;14.68;;;10.80;99.90;;;;;;4919992;28;21230;-59
2022/10/26 06:55:05;;;;;;;21.48;14.23;;;10.80;99.90;;;;;;4888634;29;20052;-59
2022/10/26 06:57:35;;;;;;;23.67;13.48;;;10.80;99.90;;;;;;4918822;28;20056;-58
2022/10/26 07:00:05;;;;;;;22.98;14.23;;;10.90;99.90;;;;;;4891233;29;20613;-59
2022/10/26 07:02:31;;;;;;;24.60;13.65;;;10.80;99.90;;;;;;4890296;29;20107;-60
2022/10/26 07:04:57;;;;;;;20.15;13.13;;;10.80;99.90;;;;;;4892864;29;20515;-59
2022/10/26 07:07:26;;;;;;;20.33;12.55;;;10.80;99.90;;;;;;4902702;29;20088;-59
2022/10/26 07:09:52;;;;;;;22.55;13.20;;;10.80;99.90;;;;;;4889258;29;20051;-59
2022/10/26 07:12:18;;;;;;;20.05;13.30;;;10.90;99.90;;;;;;4888131;29;20044;-59
2022/10/26 07:14:43;;;;;;;18.90;12.90;;;10.90;99.90;;;;;;4887255;29;20526;-59
2022/10/26 07:17:09;;;;;;;19.90;12.63;;;10.90;99.90;;;;;;4888227;29;20078;-59
2022/10/26 07:19:35;;;;;;;19.73;11.63;;;10.90;99.90;;;;;;4888994;29;20119;-59
2022/10/26 07:22:01;;;;;;;21.48;12.35;;;11.00;99.90;;;;;;4886774;29;20056;-59
2022/10/26 07:24:28;;;;;;;23.00;11.32;;;11.00;99.90;;;;;;4887689;29;20102;-60
2022/10/26 07:26:55;;;;;;;21.67;11.40;;;11.00;99.90;;;;;;4888449;29;20060;-59
2022/10/26 07:29:22;;;;;;;16.67;10.88;;;11.10;99.90;;;;;;4919852;28;20507;-58
2022/10/26 07:31:49;;;;;;;20.05;10.50;;;11.10;99.90;;;;;;4891764;29;20055;-60
2022/10/26 07:34:15;;;;;;;13.95;9.80;;;11.20;99.90;;;;;;4890432;29;20079;-60
2022/10/26 07:36:41;;;;;;;17.92;9.88;;;11.20;99.90;;;;;;4919070;28;20056;-59
2022/10/26 07:39:07;;;;;;;17.55;9.77;;;11.30;99.90;;;;;;4889537;29;20547;-60
2022/10/26 07:41:33;;;;;;;15.68;9.55;;;11.30;99.90;;;;;;4888973;29;20399;-58
2022/10/26 07:43:59;;;;;;;15.85;10.05;;;11.40;99.90;;;;;;4887195;29;20048;-58
2022/10/26 07:46:25;;;;;;;12.60;9.32;;;11.40;99.90;;;;;;4889574;29;20075;-58
2022/10/26 07:48:52;;;;;;;14.07;8.90;;;11.50;99.90;;;;;;4918896;28;20060;-59
2022/10/26 07:51:18;;;;;;;17.05;9.50;;;11.50;99.90;;;;;;4888349;29;20786;-58
2022/10/26 07:53:45;;;;;;;14.50;8.70;;;11.60;99.90;;;;;;4890251;29;20113;-59
2022/10/26 07:56:11;;;;;;;15.63;8.52;;;11.60;99.90;;;;;;4887950;29;20055;-59
2022/10/26 07:58:37;;;;;;;17.55;9.20;;;11.70;99.90;;;;;;4892947;29;20495;-59
2022/10/26 08:01:14;;;;;;;13.38;8.60;;;11.70;99.90;;;;;;4895073;29;20102;-60
2022/10/26 08:03:40;;;;;;;16.90;8.35;;;11.80;99.90;;;;;;4887311;29;20167;-60
2022/10/26 08:06:08;;;;;;;11.10;8.32;;;11.90;99.90;;;;;;4886263;29;20411;-60
2022/10/26 08:08:34;;;;;;;16.58;8.27;;;11.90;99.90;;;;;;4872602;29;20152;-58
2022/10/26 08:11:01;;;;;;;15.32;8.45;;;11.90;99.90;;;;;;4886132;29;20103;-58
2022/10/26 08:13:27;;;;;;;17.67;8.07;;;12.00;99.90;;;;;;4889118;29;20534;-58
2022/10/26 08:16:02;;;;;;;14.23;8.40;;;12.00;99.90;;;;;;4888060;29;20126;-59
2022/10/26 08:18:28;;;;;;;16.60;7.80;;;12.10;99.90;;;;;;4887685;29;20436;-60
2022/10/26 08:20:54;;;;;;;11.30;7.35;;;12.10;99.90;;;;;;4900010;29;20133;-60
2022/10/26 08:23:21;;;;;;;13.57;7.28;;;12.20;99.90;;;;;;4890093;29;20052;-59
2022/10/26 08:25:47;;;;;;;13.07;8.25;;;12.20;99.90;;;;;;4888089;29;20046;-60
2022/10/26 08:28:12;;;;;;;14.18;7.57;;;12.30;99.90;;;;;;4900413;29;20056;-59
2022/10/26 08:30:38;;;;;;;15.13;7.72;;;12.30;99.90;;;;;;4871990;29;20518;-59
2022/10/26 08:33:06;;;;;;;12.95;7.38;;;12.40;99.90;;;;;;4888339;29;20899;-58
2022/10/26 08:35:33;;;;;;;19.90;7.82;;;12.40;99.90;;;;;;4888555;29;20048;-60
2022/10/26 08:37:59;;;;;;;11.68;7.00;;;12.50;99.90;;;;;;4891973;29;20067;-59
2022/10/26 08:40:31;;;;;;;15.85;7.28;;;12.60;99.90;;;;;;4918357;28;20166;-60
2022/10/26 08:43:19;;;;;;;12.15;6.55;;;12.60;99.90;;;;;;4889894;29;20142;-60
2022/10/26 08:46:23;;;;;;;14.35;6.57;;;12.70;99.90;;;;;;4890637;29;20052;-59
2022/10/26 08:49:03;;;;;;;18.05;7.00;;;12.80;99.90;;;;;;4896132;29;20057;-59
2022/10/26 08:51:34;;;;;;;13.93;6.95;;;13.00;99.90;;;;;;4884440;29;20525;-60
2022/10/26 08:54:07;;;;;;;13.00;6.15;;;13.10;99.90;;;;;;4887434;29;20130;-60
2022/10/26 08:56:42;;;;;;;8.70;5.72;;;13.30;99.90;;;;;;4887325;29;20076;-60
2022/10/26 08:59:31;;;;;;;10.10;5.57;;;13.50;99.90;;;;;;4885733;29;20086;-60
2022/10/26 09:01:57;;;;;;;11.20;5.80;;;13.60;99.90;;;;;;4886644;29;20075;-59
2022/10/26 09:04:27;;;;;;;7.22;5.22;;;13.70;99.90;;;;;;4887463;29;20466;-60
2022/10/26 09:07:01;;;;;;;10.25;5.00;;;13.90;99.90;;;;;;4886986;29;20132;-59
2022/10/26 09:09:36;;;;;;;11.35;5.25;;;14.00;99.90;;;;;;4890096;29;20048;-58
2022/10/26 09:12:12;;;;;;;8.38;5.05;;;14.10;99.90;;;;;;4896995;29;20048;-58
2022/10/26 09:14:48;;;;;;;7.05;4.72;;;14.20;99.90;;;;;;4894361;29;20040;-60
2022/10/26 09:17:57;;;;;;;8.70;4.78;;;14.30;99.90;;;;;;4889887;29;20154;-60
2022/10/26 09:20:46;;;;;;;9.93;4.32;;;14.50;99.90;;;;;;4899207;29;20051;-59
2022/10/26 09:23:31;;;;;;;10.80;4.43;;;14.60;99.90;;;;;;4887859;29;20729;-60
2022/10/26 09:25:59;;;;;;;8.18;4.20;;;14.60;99.90;;;;;;4885617;29;20123;-59
2022/10/26 09:28:27;;;;;;;9.13;3.97;;;14.80;99.90;;;;;;4915903;28;20084;-59
2022/10/26 09:30:56;;;;;;;8.88;3.65;;;14.90;99.90;;;;;;4884282;29;20044;-60
2022/10/26 09:33:25;;;;;;;7.93;3.60;;;15.00;99.90;;;;;;4917025;28;20041;-59
2022/10/26 09:35:57;;;;;;;7.00;3.97;;;15.10;99.90;;;;;;4883023;29;20080;-60
2022/10/26 09:38:27;;;;;;;7.35;3.65;;;15.20;99.90;;;;;;4887053;29;20250;-58
2022/10/26 09:41:09;;;;;;;11.35;3.47;;;15.30;99.90;;;;;;4886932;29;20057;-59
2022/10/26 09:43:56;;;;;;;6.93;3.72;;;15.40;99.90;;;;;;4888319;29;20071;-60
2022/10/26 09:46:30;;;;;;;7.82;3.47;;;15.50;99.90;;;;;;4884972;29;21031;-60
2022/10/26 09:49:04;;;;;;;5.60;3.58;;;15.60;99.90;;;;;;4884930;29;20063;-59
2022/10/26 09:51:37;;;;;;;5.72;3.20;;;15.70;99.90;;;;;;4885145;29;20056;-59
2022/10/26 09:54:16;;;;;;;;;;;15.80;99.90;;;;;;4886241;29;20038;-60
2022/10/26 09:56:48;;;;;;;7.82;3.63;;;15.90;99.90;;;;;;4889584;29;19923;-60
2022/10/26 09:59:18;;;;;;;5.38;3.38;;;16.00;99.90;;;;;;4889107;29;20044;-60
2022/10/26 10:01:44;;;;;;;7.15;3.70;;;16.10;99.90;;;;;;4894076;29;20270;-60
2022/10/26 10:04:15;;;;;;;11.30;3.53;;;16.20;99.90;;;;;;4884617;29;20048;-59
2022/10/26 10:06:46;;;;;;;6.15;3.20;;;16.30;99.90;;;;;;4884037;29;20056;-60
2022/10/26 10:09:21;;;;;;;4.05;2.40;;;16.50;99.90;;;;;;4898853;29;20497;-60
2022/10/26 10:11:53;;;;;;;5.38;3.05;;;16.60;99.90;;;;;;4884867;29;20056;-60
2022/10/26 10:14:31;;;;;;;10.05;3.45;;;16.70;99.90;;;;;;4884423;29;20060;-58
2022/10/26 10:17:03;;;;;;;6.80;3.38;;;16.90;99.90;;;;;;4897291;29;20163;-60
2022/10/26 10:19:31;;;;;;;6.28;2.90;;;16.90;99.90;;;;;;4914063;28;20052;-60
2022/10/26 10:22:06;;;;;;;6.70;3.30;;;17.00;99.90;;;;;;4885140;29;20498;-60
2022/10/26 10:24:35;;;;;;;8.82;3.30;;;17.10;99.90;;;;;;4886849;29;20125;-59
2022/10/26 10:27:16;;;;;;;6.72;2.90;;;17.20;99.90;;;;;;4889763;29;20055;-59
2022/10/26 10:29:45;;;;;;;5.32;2.95;;;17.30;99.90;;;;;;4895981;29;20052;-60
2022/10/26 10:32:20;;;;;;;7.32;3.05;;;17.30;99.90;;;;;;4900976;29;20052;-60
2022/10/26 10:34:51;;;;;;;5.93;3.35;;;17.20;99.90;;;;;;4887305;29;20082;-61
2022/10/26 10:37:37;;;;;;;6.57;3.00;;;17.10;99.90;;;;;;4893220;29;20049;-60
2022/10/26 10:40:06;;;;;;;5.00;3.15;;;17.00;99.90;;;;;;4918497;28;20060;-59
2022/10/26 10:42:35;;;;;;;6.85;2.85;;;17.00;99.90;;;;;;4889289;29;20039;-59
2022/10/26 10:45:03;;;;;;;7.82;3.13;;;16.90;99.90;;;;;;4918712;28;20052;-59
2022/10/26 10:47:34;;;;;;;4.20;3.08;;;16.90;99.90;;;;;;4888824;29;20068;-59
2022/10/26 10:50:14;;;;;;;13.05;3.60;;;16.90;99.90;;;;;;4888200;29;21176;-59
2022/10/26 10:52:41;;;;;;;5.03;3.30;;;16.80;99.90;;;;;;4892740;29;21064;-59
2022/10/26 10:55:12;;;;;;;10.57;3.30;;;16.80;99.90;;;;;;4893537;29;20661;-59
2022/10/26 10:57:53;;;;;;;7.78;2.95;;;16.80;99.90;;;;;;4892381;29;20131;-59
2022/10/26 11:00:20;;;;;;;10.68;3.50;;;16.70;99.90;;;;;;4893280;29;20436;-59
2022/10/26 11:03:00;;;;;;;6.53;3.13;;;16.80;99.90;;;;;;4920393;28;20500;-59
2022/10/26 11:05:56;;;;;;;4.60;2.90;;;16.80;99.90;;;;;;4921927;28;20063;-59
2022/10/26 11:08:30;;;;;;;11.50;3.45;;;16.90;99.90;;;;;;4889629;29;20190;-60
2022/10/26 11:11:05;;;;;;;8.18;3.00;;;17.00;99.90;;;;;;4890445;29;20639;-59
2022/10/26 11:14:00;;;;;;;6.65;3.40;;;17.00;99.90;;;;;;4892040;29;20119;-59
2022/10/26 11:16:36;;;;;;;11.60;3.25;;;17.10;99.90;;;;;;4884701;29;20055;-61
2022/10/26 11:19:21;;;;;;;7.15;2.75;;;17.30;99.90;;;;;;4888620;29;20055;-61
2022/10/26 11:21:53;;;;;;;7.80;3.00;;;17.40;99.90;;;;;;4900850;29;20060;-61
2022/10/26 11:24:48;;;;;;;5.30;2.80;;;17.60;99.90;;;;;;4889736;29;20052;-59
2022/10/26 11:27:22;;;;;;;9.52;2.88;;;17.80;99.90;;;;;;4888688;29;20147;-60
2022/10/26 11:30:01;;;;;;;6.93;2.92;;;17.90;99.90;;;;;;4891392;29;20594;-60
2022/10/26 11:32:33;;;;;;;11.32;3.10;;;17.90;99.90;;;;;;4891358;29;20044;-60
2022/10/26 11:35:11;;;;;;;7.25;2.55;;;17.90;99.90;;;;;;4897047;29;20095;-60
2022/10/26 11:37:50;;;;;;;5.85;2.65;;;18.00;99.90;;;;;;4898999;29;20087;-59
2022/10/26 11:40:46;;;;;;;7.88;3.03;;;18.00;99.90;;;;;;4877864;29;20060;-60
2022/10/26 11:43:41;;;;;;;9.65;3.30;;;18.20;99.90;;;;;;4890790;29;20121;-60
2022/10/26 11:46:29;;;;;;;9.35;2.80;;;18.40;99.90;;;;;;4881536;29;20153;-60
2022/10/26 11:49:15;;;;;;;6.35;2.83;;;18.60;99.90;;;;;;4888171;29;20458;-60
2022/10/26 11:51:48;;;;;;;6.75;2.88;;;18.80;99.90;;;;;;4890399;29;20387;-60
2022/10/26 11:54:25;;;;;;;9.13;2.72;;;19.00;99.90;;;;;;4890801;29;20502;-59
2022/10/26 11:56:54;;;;;;;6.13;2.75;;;19.10;99.90;;;;;;4892551;29;20127;-59
2022/10/26 11:59:23;;;;;;;6.53;2.72;;;19.20;99.90;;;;;;4891707;29;20063;-60
2022/10/26 12:01:54;;;;;;;5.13;2.50;;;19.40;99.90;;;;;;4899237;29;20052;-60
2022/10/26 12:04:24;;;;;;;5.90;2.70;;;19.60;99.90;;;;;;4894252;29;20120;-60
2022/10/26 12:06:53;;;;;;;9.93;3.15;;;19.70;99.90;;;;;;4889740;29;20492;-60
2022/10/26 12:09:40;;;;;;;7.30;2.67;;;19.80;99.90;;;;;;4887629;29;20151;-60
2022/10/26 12:12:19;;;;;;;5.82;3.42;;;19.90;99.90;;;;;;4888813;29;20053;-59
2022/10/26 12:14:55;;;;;;;9.05;2.83;;;20.00;99.90;;;;;;4891320;29;20040;-59
2022/10/26 12:17:50;;;;;;;8.23;2.80;;;20.10;99.90;;;;;;4890918;29;20495;-60
2022/10/26 12:20:47;;;;;;;8.48;3.40;;;20.10;99.90;;;;;;4887807;29;20156;-60
2022/10/26 12:23:13;;;;;;;7.45;3.10;;;20.10;99.90;;;;;;4897338;29;20482;-59
2022/10/26 12:25:39;;;;;;;8.25;2.83;;;20.10;99.90;;;;;;4907327;29;20491;-60
2022/10/26 12:28:34;;;;;;;7.70;3.10;;;20.10;99.90;;;;;;4889043;29;20123;-60
2022/10/26 12:31:30;;;;;;;8.80;3.03;;;20.20;99.90;;;;;;4888619;29;20203;-61
2022/10/26 12:33:57;;;;;;;6.57;2.30;;;20.30;99.90;;;;;;4890540;29;20474;-60
2022/10/26 12:36:48;;;;;;;7.82;2.97;;;20.40;99.90;;;;;;4890455;29;20131;-59
2022/10/26 12:39:34;;;;;;;10.02;3.40;;;20.50;99.90;;;;;;4893661;29;20048;-60
2022/10/26 12:42:09;;;;;;;7.95;3.58;;;20.50;99.90;;;;;;4891729;29;20083;-60
2022/10/26 12:44:36;;;;;;;6.00;3.20;;;20.30;99.90;;;;;;4889829;29;20119;-59
2022/10/26 12:47:03;;;;;;;7.10;3.20;;;20.10;99.90;;;;;;4891699;29;20119;-60
2022/10/26 12:50:14;;;;;;;6.88;3.28;;;20.00;99.90;;;;;;4889212;29;20056;-59
2022/10/26 12:52:52;;;;;;;9.90;3.13;;;19.90;99.90;;;;;;4879243;29;20051;-59
2022/10/26 12:55:36;;;;;;;6.43;2.90;;;19.70;99.90;;;;;;4886293;29;20087;-60
2022/10/26 12:58:29;;;;;;;9.63;3.38;;;19.60;99.90;;;;;;4885797;29;20097;-61
2022/10/26 13:00:58;;;;;;;8.77;3.60;;;19.50;99.90;;;;;;4886062;29;21220;-59